Time;durP1;ratioP1;P1;durP2;ratioP2;P2;SDS_P1;SDS_P2;PMS_P1;PMS_P2;Temp;Humidity;BMP_temperature;BMP_pressure;BME280_temperature;BME280_humidity;BME280_pressure;Samples;Min_cycle;Max_cycle;Signal;HPM_P1;HPM_P2
2023/03/29 00:00:00;;;;;;;6.37;1.70;;;6.30;72.10;;;;;;5060937;28;20482;-78
2023/03/29 00:02:32;;;;;;;4.97;1.60;;;6.40;72.20;;;;;;5046142;28;20281;-78
2023/03/29 00:05:03;;;;;;;6.22;1.80;;;6.30;72.00;;;;;;5048241;28;20103;-79
2023/03/29 00:07:32;;;;;;;4.82;1.60;;;6.30;72.20;;;;;;5049438;28;20050;-77
2023/03/29 00:10:03;;;;;;;5.53;1.80;;;6.30;72.40;;;;;;5043918;28;20052;-78
2023/03/29 00:12:30;;;;;;;5.20;1.50;;;6.30;72.50;;;;;;5051746;28;20163;-78
2023/03/29 00:14:57;;;;;;;4.80;1.70;;;6.30;72.40;;;;;;5029870;28;20631;-78
2023/03/29 00:17:24;;;;;;;4.47;1.92;;;6.30;72.50;;;;;;5039656;28;20038;-78
2023/03/29 00:19:54;;;;;;;5.72;1.35;;;6.30;72.50;;;;;;5046203;28;20053;-78
2023/03/29 00:22:21;;;;;;;4.65;1.42;;;6.30;72.90;;;;;;5049264;28;20069;-78
2023/03/29 00:24:48;;;;;;;5.53;1.73;;;6.20;72.60;;;;;;5051976;28;20052;-78
2023/03/29 00:27:15;;;;;;;5.97;1.85;;;6.20;72.80;;;;;;5052030;28;20272;-78
2023/03/29 00:29:44;;;;;;;5.40;1.75;;;6.30;73.00;;;;;;5068471;28;20594;-78
2023/03/29 00:32:12;;;;;;;4.55;1.60;;;6.20;72.80;;;;;;5045171;28;20049;-78
2023/03/29 00:34:41;;;;;;;5.03;1.50;;;6.20;73.00;;;;;;5033346;28;20785;-78
2023/03/29 00:37:13;;;;;;;4.63;1.90;;;6.20;73.20;;;;;;5051530;28;20061;-78
2023/03/29 00:39:42;;;;;;;4.82;1.75;;;6.20;73.20;;;;;;5032080;28;20386;-78
2023/03/29 00:42:12;;;;;;;6.10;2.05;;;6.20;73.40;;;;;;5033962;28;20053;-78
2023/03/29 00:45:00;;;;;;;5.65;2.20;;;6.20;73.30;;;;;;5055805;28;20068;-78
2023/03/29 00:47:32;;;;;;;6.20;2.30;;;6.20;73.30;;;;;;5042223;28;20108;-78
2023/03/29 00:50:05;;;;;;;6.23;2.10;;;6.20;73.60;;;;;;5032980;28;20163;-78
2023/03/29 00:52:36;;;;;;;7.72;2.33;;;6.20;73.70;;;;;;5027799;28;20265;-78
2023/03/29 00:55:11;;;;;;;5.38;2.17;;;6.20;73.70;;;;;;5046368;28;20049;-78
2023/03/29 00:57:45;;;;;;;5.40;2.42;;;6.20;73.70;;;;;;5032802;28;20057;-78
2023/03/29 01:00:16;;;;;;;5.93;2.30;;;6.20;74.10;;;;;;5048515;28;20049;-78
2023/03/29 01:02:49;;;;;;;6.17;2.27;;;6.20;74.00;;;;;;5046073;28;20073;-78
2023/03/29 01:08:24;;;;;;;7.43;2.80;;;6.20;74.20;;;;;;5038316;28;20067;-78
2023/03/29 01:10:57;;;;;;;5.80;2.10;;;6.10;74.00;;;;;;5052631;28;20069;-78
2023/03/29 01:13:32;;;;;;;7.05;2.50;;;6.20;74.20;;;;;;5040609;28;20045;-78
2023/03/29 01:16:01;;;;;;;6.00;2.20;;;6.20;74.20;;;;;;5013303;28;20080;-78
2023/03/29 01:18:30;;;;;;;5.05;2.15;;;6.20;74.30;;;;;;5026493;28;20729;-78
2023/03/29 01:21:18;;;;;;;6.03;2.22;;;6.10;74.40;;;;;;5048209;28;20139;-78
2023/03/29 01:24:12;;;;;;;5.10;2.20;;;6.20;74.50;;;;;;5032530;28;20510;-78
2023/03/29 01:26:52;;;;;;;7.68;2.40;;;6.20;74.70;;;;;;5032968;28;20050;-78
2023/03/29 01:29:31;;;;;;;6.23;2.33;;;6.10;74.70;;;;;;5038306;28;20313;-78
2023/03/29 01:32:04;;;;;;;5.28;2.03;;;6.10;74.60;;;;;;5058738;28;20253;-78
2023/03/29 01:34:36;;;;;;;5.95;2.33;;;6.10;74.60;;;;;;5032480;28;20057;-77
2023/03/29 01:37:07;;;;;;;6.68;2.67;;;6.10;74.60;;;;;;5032460;28;20060;-78
2023/03/29 01:39:36;;;;;;;6.72;2.15;;;6.10;74.70;;;;;;5053051;28;20061;-78
2023/03/29 01:42:15;;;;;;;6.40;3.00;;;6.10;74.80;;;;;;5032273;28;20042;-77
2023/03/29 01:44:52;;;;;;;7.97;2.47;;;6.10;74.90;;;;;;5040809;28;20712;-78
2023/03/29 01:47:27;;;;;;;6.78;2.10;;;6.10;75.10;;;;;;5052606;28;20045;-78
2023/03/29 01:50:05;;;;;;;7.10;2.75;;;6.10;74.80;;;;;;5051825;28;20055;-78
2023/03/29 01:52:36;;;;;;;7.20;2.30;;;6.10;75.00;;;;;;5052433;28;20049;-77
2023/03/29 01:55:08;;;;;;;6.97;2.40;;;6.10;74.90;;;;;;5069015;28;20123;-78
2023/03/29 01:57:38;;;;;;;6.32;3.25;;;6.10;74.90;;;;;;5050008;28;20256;-78
2023/03/29 02:00:11;;;;;;;6.03;2.10;;;6.10;75.00;;;;;;5032073;28;20158;-78
2023/03/29 02:02:42;;;;;;;6.85;2.78;;;6.10;75.00;;;;;;5048985;28;20080;-78
2023/03/29 02:05:13;;;;;;;6.22;2.33;;;6.10;75.10;;;;;;5037173;28;20147;-78
2023/03/29 02:07:42;;;;;;;5.90;2.37;;;6.10;75.10;;;;;;5052335;28;20052;-78
2023/03/29 02:10:10;;;;;;;5.88;2.55;;;6.10;75.30;;;;;;5068636;28;20256;-78
2023/03/29 02:12:38;;;;;;;6.53;2.72;;;6.10;75.00;;;;;;5040673;28;20042;-78
2023/03/29 02:15:10;;;;;;;6.63;2.60;;;6.10;75.30;;;;;;5039214;28;20115;-78
2023/03/29 02:17:38;;;;;;;7.15;2.78;;;6.10;75.10;;;;;;5064148;28;20049;-78
2023/03/29 02:20:13;;;;;;;7.53;2.63;;;6.10;75.10;;;;;;5029734;28;20046;-78
2023/03/29 02:22:48;;;;;;;6.05;2.60;;;6.10;75.20;;;;;;5031960;28;20750;-78
2023/03/29 02:25:16;;;;;;;6.03;2.20;;;6.10;75.20;;;;;;5050148;28;20095;-78
2023/03/29 02:27:44;;;;;;;6.28;2.70;;;6.10;75.60;;;;;;5031796;28;20569;-78
2023/03/29 02:30:15;;;;;;;8.13;2.85;;;6.10;75.40;;;;;;5040304;28;20049;-78
2023/03/29 02:32:52;;;;;;;6.67;2.67;;;6.10;75.30;;;;;;5040905;28;20057;-78
2023/03/29 02:35:26;;;;;;;6.20;2.47;;;6.10;75.40;;;;;;5031390;28;20292;-78
2023/03/29 02:37:56;;;;;;;7.05;3.05;;;6.10;75.50;;;;;;5031324;28;20075;-78
2023/03/29 02:40:24;;;;;;;6.43;2.65;;;6.10;75.40;;;;;;5031279;28;20052;-78
2023/03/29 02:42:55;;;;;;;7.05;3.20;;;6.10;75.40;;;;;;5044546;28;20042;-78
2023/03/29 02:45:25;;;;;;;7.17;2.80;;;6.10;75.70;;;;;;5027253;28;20056;-78
2023/03/29 02:47:58;;;;;;;7.93;3.30;;;6.10;75.60;;;;;;5044702;28;20251;-78
2023/03/29 02:50:30;;;;;;;8.30;3.35;;;6.10;75.70;;;;;;5034826;28;20604;-78
2023/03/29 02:53:01;;;;;;;7.88;3.20;;;6.10;75.80;;;;;;5051430;28;20548;-78
2023/03/29 02:55:33;;;;;;;8.27;3.60;;;6.10;75.70;;;;;;5046107;28;20062;-78
2023/03/29 02:58:02;;;;;;;7.43;3.17;;;6.10;75.80;;;;;;5048350;28;20041;-78
2023/03/29 03:00:31;;;;;;;9.27;3.40;;;6.10;75.70;;;;;;5031463;28;20273;-78
2023/03/29 03:02:58;;;;;;;8.77;3.60;;;6.10;75.80;;;;;;5029315;28;20065;-78
2023/03/29 03:05:28;;;;;;;8.77;3.65;;;6.10;75.80;;;;;;5047868;28;20889;-78
2023/03/29 03:07:55;;;;;;;8.70;3.60;;;6.10;75.90;;;;;;5031372;28;20049;-78
2023/03/29 03:10:22;;;;;;;7.70;3.40;;;6.10;75.80;;;;;;5031007;28;20077;-79
2023/03/29 03:12:49;;;;;;;7.00;3.72;;;6.10;75.90;;;;;;5030978;28;20252;-78
2023/03/29 03:15:16;;;;;;;8.40;3.63;;;6.10;76.00;;;;;;5030460;28;20497;-78
2023/03/29 03:17:45;;;;;;;8.77;3.83;;;6.10;76.10;;;;;;5031158;28;20053;-78
2023/03/29 03:20:13;;;;;;;10.00;4.20;;;6.10;76.00;;;;;;5026199;28;20057;-77
2023/03/29 03:22:42;;;;;;;8.20;4.00;;;6.10;76.10;;;;;;5030600;28;20042;-77
2023/03/29 03:25:10;;;;;;;8.60;3.85;;;6.10;76.10;;;;;;5049218;28;20673;-79
2023/03/29 03:27:38;;;;;;;11.27;4.35;;;6.20;76.20;;;;;;5049412;28;20053;-78
2023/03/29 03:30:07;;;;;;;10.10;4.05;;;6.10;76.00;;;;;;5051145;28;20049;-78
2023/03/29 03:33:05;;;;;;;8.95;4.03;;;6.10;76.00;;;;;;4995869;28;20059;-78
2023/03/29 03:35:50;;;;;;;8.00;3.53;;;6.10;76.00;;;;;;5065398;28;20131;-78
2023/03/29 03:38:18;;;;;;;9.80;4.25;;;6.10;76.10;;;;;;5051060;28;20954;-78
2023/03/29 03:40:53;;;;;;;11.68;5.05;;;6.10;76.00;;;;;;5050621;28;20045;-78
2023/03/29 03:43:21;;;;;;;10.05;4.55;;;6.20;76.20;;;;;;5025300;28;20054;-78
2023/03/29 03:45:49;;;;;;;10.00;4.68;;;6.20;76.00;;;;;;5024637;28;20466;-78
2023/03/29 03:48:21;;;;;;;8.90;4.57;;;6.20;76.10;;;;;;5030842;28;20046;-78
2023/03/29 03:50:56;;;;;;;10.73;5.03;;;6.20;76.30;;;;;;5049268;28;20255;-78
2023/03/29 03:53:27;;;;;;;10.10;4.55;;;6.20;76.20;;;;;;5067247;28;20125;-78
2023/03/29 03:56:13;;;;;;;10.75;4.63;;;6.20;76.30;;;;;;5028288;28;20574;-78
2023/03/29 03:58:57;;;;;;;9.07;4.68;;;6.20;76.20;;;;;;5014390;28;20198;-78
2023/03/29 04:01:26;;;;;;;10.60;5.73;;;6.20;76.30;;;;;;5051116;28;20088;-78
2023/03/29 04:04:06;;;;;;;9.95;4.80;;;6.20;76.30;;;;;;5033585;28;20761;-79
2023/03/29 04:06:33;;;;;;;9.27;4.57;;;6.20;76.20;;;;;;5025203;28;20052;-78
2023/03/29 04:09:23;;;;;;;8.48;4.32;;;6.20;76.20;;;;;;5032037;28;20061;-78
2023/03/29 04:12:02;;;;;;;9.27;5.25;;;6.20;76.20;;;;;;5049433;28;20049;-79
2023/03/29 04:14:31;;;;;;;10.23;5.33;;;6.20;76.30;;;;;;5053179;28;20719;-78
2023/03/29 04:17:05;;;;;;;9.43;4.35;;;6.20;76.40;;;;;;5049940;28;20848;-78
2023/03/29 04:19:50;;;;;;;9.63;4.88;;;6.30;76.60;;;;;;5054581;28;20045;-78
2023/03/29 04:22:19;;;;;;;10.77;5.25;;;6.30;76.50;;;;;;5070336;28;21066;-77
2023/03/29 04:24:46;;;;;;;9.70;4.60;;;6.20;76.40;;;;;;5047799;28;20083;-78
2023/03/29 04:27:43;;;;;;;11.90;5.60;;;6.30;76.60;;;;;;5027924;28;20060;-78
2023/03/29 04:30:29;;;;;;;9.60;4.45;;;6.30;76.50;;;;;;5033394;28;20739;-78
2023/03/29 04:33:14;;;;;;;10.15;4.70;;;6.30;76.70;;;;;;5049987;28;20057;-78
2023/03/29 04:35:46;;;;;;;10.80;5.00;;;6.30;76.60;;;;;;5040105;28;20060;-78
2023/03/29 04:38:16;;;;;;;11.52;4.70;;;6.30;76.50;;;;;;5061775;28;20548;-78
2023/03/29 04:40:46;;;;;;;9.57;4.53;;;6.30;76.80;;;;;;5040660;28;20056;-78
2023/03/29 04:43:52;;;;;;;10.70;4.80;;;6.30;76.80;;;;;;5034968;28;20388;-78
2023/03/29 04:46:25;;;;;;;9.70;4.72;;;6.30;76.90;;;;;;5024830;28;20054;-78
2023/03/29 04:49:04;;;;;;;9.30;4.88;;;6.30;76.90;;;;;;5051066;28;20131;-78
2023/03/29 04:51:40;;;;;;;9.52;4.53;;;6.40;77.00;;;;;;5052031;28;20617;-78
2023/03/29 04:54:08;;;;;;;9.77;4.73;;;6.40;77.00;;;;;;5053224;28;20133;-78
2023/03/29 04:57:02;;;;;;;11.10;5.32;;;6.40;77.00;;;;;;5068168;28;20280;-78
2023/03/29 04:59:35;;;;;;;10.75;5.57;;;6.40;77.10;;;;;;5059988;28;20072;-78
2023/03/29 05:02:09;;;;;;;12.23;5.90;;;6.40;77.10;;;;;;5033169;28;20049;-78
2023/03/29 05:04:38;;;;;;;9.68;4.90;;;6.40;77.50;;;;;;5022988;28;20050;-78
2023/03/29 05:07:14;;;;;;;13.10;5.40;;;6.40;77.50;;;;;;5025804;28;20068;-78
2023/03/29 05:09:42;;;;;;;11.18;5.75;;;6.40;77.50;;;;;;5019143;28;20287;-78
2023/03/29 05:12:11;;;;;;;9.02;5.00;;;6.40;77.80;;;;;;5049023;28;20057;-78
2023/03/29 05:14:52;;;;;;;10.90;4.80;;;6.40;77.80;;;;;;5049721;28;20049;-78
2023/03/29 05:17:21;;;;;;;8.90;5.10;;;6.40;78.00;;;;;;5052776;28;20057;-78
2023/03/29 05:19:50;;;;;;;10.60;4.33;;;6.40;78.20;;;;;;5033768;28;20073;-78
2023/03/29 05:22:19;;;;;;;13.85;5.38;;;6.40;78.60;;;;;;5032862;28;20612;-78
2023/03/29 05:24:46;;;;;;;10.77;4.55;;;6.40;79.00;;;;;;5052696;28;20044;-78
2023/03/29 05:27:19;;;;;;;9.43;4.40;;;6.40;78.90;;;;;;5032369;28;20056;-78
2023/03/29 05:29:58;;;;;;;10.15;4.78;;;6.40;79.10;;;;;;5051327;28;20078;-78
2023/03/29 05:32:32;;;;;;;10.47;4.87;;;6.40;79.10;;;;;;5035076;28;20064;-78
2023/03/29 05:35:01;;;;;;;10.02;4.85;;;6.40;79.40;;;;;;5036351;28;20352;-78
2023/03/29 05:37:32;;;;;;;9.63;5.00;;;6.40;79.30;;;;;;5022820;28;20314;-78
2023/03/29 05:40:07;;;;;;;10.45;4.93;;;6.40;79.60;;;;;;5026331;28;20182;-78
2023/03/29 05:42:47;;;;;;;9.93;4.75;;;6.40;79.80;;;;;;5015295;28;20050;-77
2023/03/29 05:45:16;;;;;;;9.53;4.60;;;6.40;79.60;;;;;;5027256;28;20053;-78
2023/03/29 05:47:45;;;;;;;14.82;5.75;;;6.40;79.80;;;;;;5032774;28;20260;-78
2023/03/29 05:50:12;;;;;;;12.50;5.43;;;6.40;80.10;;;;;;5031436;28;20107;-78
2023/03/29 05:52:41;;;;;;;11.73;5.55;;;6.40;80.30;;;;;;5031821;28;20103;-78
2023/03/29 05:55:10;;;;;;;9.98;5.15;;;6.40;80.40;;;;;;5037307;28;20211;-78
2023/03/29 05:57:37;;;;;;;11.00;5.57;;;6.40;80.70;;;;;;5051877;28;20080;-78
2023/03/29 06:00:14;;;;;;;12.23;4.38;;;6.40;80.90;;;;;;5051730;28;20291;-78
2023/03/29 06:02:41;;;;;;;11.65;4.70;;;6.40;81.00;;;;;;5051909;28;20045;-79
2023/03/29 06:05:09;;;;;;;10.27;4.97;;;6.40;81.20;;;;;;5051847;28;20053;-78
2023/03/29 06:07:44;;;;;;;9.70;5.00;;;6.40;81.10;;;;;;5051845;28;20593;-78
2023/03/29 06:10:37;;;;;;;10.90;5.00;;;6.40;81.40;;;;;;5029187;28;20057;-78
2023/03/29 06:13:21;;;;;;;10.70;5.90;;;6.40;81.30;;;;;;5047977;28;20237;-78
2023/03/29 06:15:48;;;;;;;11.43;4.80;;;6.40;81.90;;;;;;5031256;28;20056;-77
2023/03/29 06:18:15;;;;;;;11.68;5.60;;;6.40;81.90;;;;;;5027887;28;20073;-78
2023/03/29 06:20:42;;;;;;;10.68;5.50;;;6.40;81.90;;;;;;5030067;28;20080;-78
2023/03/29 06:23:15;;;;;;;10.07;4.90;;;6.40;81.70;;;;;;5014521;28;20053;-78
2023/03/29 06:25:44;;;;;;;9.95;5.43;;;6.50;82.30;;;;;;5032296;28;20476;-77
2023/03/29 06:28:15;;;;;;;10.55;5.25;;;6.40;82.00;;;;;;5047090;28;20434;-78
2023/03/29 06:30:44;;;;;;;11.18;5.45;;;6.40;82.40;;;;;;5025765;28;20049;-78
2023/03/29 06:33:13;;;;;;;12.23;5.15;;;6.50;82.20;;;;;;5027744;28;20541;-78
2023/03/29 06:35:47;;;;;;;11.07;5.20;;;6.50;82.40;;;;;;5046853;28;20052;-78
2023/03/29 06:38:19;;;;;;;10.45;4.90;;;6.50;82.40;;;;;;5045909;28;20311;-78
2023/03/29 06:41:01;;;;;;;11.85;4.63;;;6.50;82.70;;;;;;5046718;28;20056;-77
2023/03/29 06:43:33;;;;;;;10.13;5.32;;;6.50;82.50;;;;;;5024918;28;20058;-78
2023/03/29 06:46:10;;;;;;;11.35;5.30;;;6.50;82.40;;;;;;5030684;28;20058;-78
2023/03/29 06:48:54;;;;;;;9.70;4.57;;;6.50;82.60;;;;;;5038951;28;20812;-78
2023/03/29 06:51:24;;;;;;;12.98;5.18;;;6.50;82.40;;;;;;5025968;28;20817;-79
2023/03/29 06:53:52;;;;;;;9.73;5.10;;;6.50;82.40;;;;;;5026250;28;20510;-79
2023/03/29 06:56:21;;;;;;;10.85;5.10;;;6.50;82.30;;;;;;5026211;28;20060;-80
2023/03/29 06:58:57;;;;;;;10.15;4.60;;;6.50;82.20;;;;;;5042272;28;20487;-79
2023/03/29 07:01:39;;;;;;;10.40;5.43;;;6.50;82.20;;;;;;5029866;28;20128;-81
2023/03/29 07:04:14;;;;;;;8.93;4.65;;;6.60;82.40;;;;;;5029915;28;20284;-78
2023/03/29 07:07:02;;;;;;;8.93;4.93;;;6.60;82.30;;;;;;5043411;28;20089;-79
2023/03/29 07:09:35;;;;;;;9.82;4.93;;;6.60;82.30;;;;;;5029868;28;20152;-80
2023/03/29 07:12:25;;;;;;;11.02;5.40;;;6.70;82.60;;;;;;5016649;28;20054;-79
2023/03/29 07:14:58;;;;;;;11.00;4.80;;;6.60;82.40;;;;;;5031351;28;20056;-80
2023/03/29 07:17:41;;;;;;;12.68;5.30;;;6.70;82.60;;;;;;5023467;28;20734;-78
2023/03/29 07:20:12;;;;;;;10.15;5.00;;;6.70;82.50;;;;;;5039349;28;20046;-80
2023/03/29 07:22:47;;;;;;;9.50;5.05;;;6.70;82.50;;;;;;5040909;28;20092;-78
2023/03/29 07:25:16;;;;;;;10.30;5.10;;;6.80;82.50;;;;;;5025695;28;20059;-79
2023/03/29 07:27:43;;;;;;;12.07;5.70;;;6.80;82.50;;;;;;5044730;28;20060;-79
2023/03/29 07:30:15;;;;;;;10.88;5.15;;;6.80;82.50;;;;;;5029125;28;20275;-79
2023/03/29 07:32:45;;;;;;;10.15;4.90;;;6.80;82.40;;;;;;5027310;28;20124;-79
2023/03/29 07:35:27;;;;;;;10.32;4.68;;;6.80;82.40;;;;;;5026554;28;20146;-78
2023/03/29 07:37:56;;;;;;;11.63;4.68;;;6.80;82.40;;;;;;5045921;28;20071;-78
2023/03/29 07:40:26;;;;;;;9.83;4.77;;;6.90;82.60;;;;;;5029850;28;20144;-79
2023/03/29 07:42:57;;;;;;;9.13;4.60;;;6.90;82.30;;;;;;5033223;28;20304;-80
2023/03/29 07:45:28;;;;;;;11.30;5.25;;;6.90;82.40;;;;;;5029503;28;20049;-78
2023/03/29 07:48:07;;;;;;;9.25;4.90;;;6.90;82.30;;;;;;5024868;28;20048;-79
2023/03/29 07:50:50;;;;;;;9.88;5.03;;;6.90;82.20;;;;;;5028194;28;20037;-80
2023/03/29 07:53:23;;;;;;;11.67;5.17;;;6.90;82.30;;;;;;5023210;28;20590;-78
2023/03/29 07:55:53;;;;;;;9.18;4.80;;;7.00;82.40;;;;;;5028304;28;20833;-79
2023/03/29 07:58:39;;;;;;;11.48;5.43;;;7.00;82.30;;;;;;5043767;28;20569;-80
2023/03/29 08:01:07;;;;;;;9.30;4.82;;;7.00;82.40;;;;;;5030521;28;20054;-81
2023/03/29 08:04:13;;;;;;;8.75;4.57;;;7.00;82.30;;;;;;5025662;28;20053;-79
2023/03/29 08:07:00;;;;;;;9.97;5.13;;;7.00;82.10;;;;;;5036849;28;20064;-80
2023/03/29 08:09:44;;;;;;;9.82;4.65;;;7.00;82.20;;;;;;5032114;28;20264;-80
2023/03/29 08:12:13;;;;;;;10.13;4.45;;;7.10;82.20;;;;;;5039493;28;20046;-79
2023/03/29 08:14:40;;;;;;;10.13;5.25;;;7.20;82.20;;;;;;5033425;28;20057;-79
2023/03/29 08:17:15;;;;;;;10.13;5.22;;;7.20;82.20;;;;;;5028721;28;20111;-79
2023/03/29 08:19:47;;;;;;;11.73;5.37;;;7.20;82.20;;;;;;5023676;28;20132;-80
2023/03/29 08:22:15;;;;;;;12.25;5.00;;;7.20;82.10;;;;;;5031187;28;20287;-81
2023/03/29 08:25:03;;;;;;;10.10;4.68;;;7.20;82.20;;;;;;5049458;28;20136;-81
2023/03/29 08:27:36;;;;;;;9.10;4.43;;;7.30;82.30;;;;;;5037504;28;20050;-81
2023/03/29 08:30:06;;;;;;;12.07;4.20;;;7.40;82.50;;;;;;5028450;28;20073;-81
2023/03/29 08:32:37;;;;;;;9.50;4.77;;;7.40;82.30;;;;;;5032492;28;20110;-79
2023/03/29 08:35:06;;;;;;;9.50;4.93;;;7.40;82.20;;;;;;5032453;28;20304;-78
2023/03/29 08:37:52;;;;;;;8.57;4.53;;;7.40;82.30;;;;;;5032533;28;20054;-78
2023/03/29 08:40:23;;;;;;;9.88;4.63;;;7.50;82.30;;;;;;5051753;28;20057;-80
2023/03/29 08:43:24;;;;;;;10.85;4.72;;;7.50;82.30;;;;;;5049691;28;20531;-80
2023/03/29 08:46:26;;;;;;;11.17;4.90;;;7.50;82.40;;;;;;5047656;28;20140;-80
2023/03/29 08:49:01;;;;;;;9.30;4.50;;;7.60;82.40;;;;;;5030951;28;20260;-80
2023/03/29 08:51:31;;;;;;;9.40;4.85;;;7.60;82.40;;;;;;5035788;28;20132;-80
2023/03/29 08:54:01;;;;;;;15.23;5.18;;;7.60;82.30;;;;;;5032570;28;20045;-80
2023/03/29 08:56:51;;;;;;;11.57;4.70;;;7.70;82.50;;;;;;5023733;28;20132;-79
2023/03/29 08:59:33;;;;;;;9.23;4.53;;;7.80;82.40;;;;;;5031776;28;20486;-79
2023/03/29 09:02:16;;;;;;;10.63;4.80;;;7.80;82.40;;;;;;5032783;28;20284;-78
2023/03/29 09:04:44;;;;;;;10.88;4.90;;;7.80;82.30;;;;;;5044376;28;20042;-79
2023/03/29 09:07:23;;;;;;;8.45;4.65;;;7.90;82.30;;;;;;5029169;28;20629;-79
2023/03/29 09:09:50;;;;;;;9.25;4.85;;;8.00;82.10;;;;;;5012744;28;20042;-79
2023/03/29 09:12:36;;;;;;;10.57;4.40;;;8.00;81.90;;;;;;5031296;28;20510;-80
2023/03/29 09:15:14;;;;;;;10.80;4.55;;;8.10;81.80;;;;;;5030955;28;20698;-79
2023/03/29 09:18:04;;;;;;;11.07;5.35;;;8.10;81.50;;;;;;5031885;28;20132;-78
2023/03/29 09:20:41;;;;;;;12.55;4.75;;;8.20;81.30;;;;;;5026509;28;20164;-78
2023/03/29 09:23:29;;;;;;;9.10;4.65;;;8.20;81.10;;;;;;5031513;28;20058;-79
2023/03/29 09:26:21;;;;;;;10.93;4.57;;;8.30;81.00;;;;;;5055760;28;20422;-79
2023/03/29 09:29:25;;;;;;;15.32;5.88;;;8.40;80.80;;;;;;5032045;28;20295;-79
2023/03/29 09:31:56;;;;;;;10.63;4.30;;;8.40;80.50;;;;;;5032085;28;20212;-79
2023/03/29 09:34:29;;;;;;;9.85;4.85;;;8.50;80.40;;;;;;5032737;28;20104;-78
2023/03/29 09:37:03;;;;;;;12.73;5.20;;;8.50;80.10;;;;;;5043211;28;20065;-78
2023/03/29 09:39:31;;;;;;;10.77;5.27;;;8.60;80.10;;;;;;5031832;28;20064;-76
2023/03/29 09:42:10;;;;;;;9.95;5.28;;;8.60;80.00;;;;;;5031382;28;20280;-77
2023/03/29 09:44:45;;;;;;;11.05;5.53;;;8.60;79.90;;;;;;5031966;28;20054;-78
2023/03/29 09:47:23;;;;;;;10.18;5.38;;;8.70;79.90;;;;;;5022320;28;20046;-78
2023/03/29 09:49:56;;;;;;;10.25;5.65;;;8.70;79.80;;;;;;5028803;28;20042;-75
2023/03/29 09:52:23;;;;;;;11.97;5.50;;;8.80;79.70;;;;;;5043854;28;20050;-75
2023/03/29 09:55:02;;;;;;;11.18;5.20;;;8.90;79.40;;;;;;5029654;28;20304;-76
2023/03/29 09:57:57;;;;;;;10.25;5.32;;;8.90;79.40;;;;;;5042688;28;20093;-79
2023/03/29 10:00:25;;;;;;;13.63;6.03;;;8.90;79.40;;;;;;5023207;28;20080;-79
2023/03/29 10:02:58;;;;;;;13.77;6.20;;;9.00;79.40;;;;;;5033956;28;20055;-78
2023/03/29 10:05:38;;;;;;;11.43;5.67;;;9.00;79.30;;;;;;5041265;28;20541;-78
2023/03/29 10:08:18;;;;;;;12.10;6.70;;;9.10;79.20;;;;;;5035498;28;20718;-78
2023/03/29 10:10:46;;;;;;;12.57;5.75;;;9.20;79.10;;;;;;5034217;28;20046;-78
2023/03/29 10:13:20;;;;;;;11.35;5.70;;;9.20;79.00;;;;;;5048572;28;20054;-77
2023/03/29 10:15:58;;;;;;;12.70;6.20;;;9.20;79.10;;;;;;5047403;28;20573;-78
2023/03/29 10:18:26;;;;;;;12.10;6.53;;;9.20;79.10;;;;;;5029299;28;20511;-78
2023/03/29 10:20:59;;;;;;;12.63;7.40;;;9.40;78.90;;;;;;5044874;28;20758;-78
2023/03/29 10:23:31;;;;;;;14.75;7.50;;;9.40;78.80;;;;;;5031106;28;20077;-78
2023/03/29 10:25:58;;;;;;;13.60;6.82;;;9.40;78.80;;;;;;5047156;28;20858;-79
2023/03/29 10:28:29;;;;;;;15.30;6.80;;;9.40;78.70;;;;;;5047655;28;20562;-79
2023/03/29 10:30:59;;;;;;;12.40;6.30;;;9.50;79.00;;;;;;5022412;28;20057;-79
2023/03/29 10:33:31;;;;;;;12.80;6.10;;;9.50;79.00;;;;;;5040662;28;20245;-78
2023/03/29 10:36:00;;;;;;;14.68;6.63;;;9.50;79.20;;;;;;5035858;28;20049;-80
2023/03/29 10:38:29;;;;;;;13.60;7.72;;;9.50;79.10;;;;;;5038131;28;20136;-78
2023/03/29 10:41:05;;;;;;;12.70;6.75;;;9.60;79.20;;;;;;5046209;28;20133;-79
2023/03/29 10:43:37;;;;;;;13.97;6.67;;;9.60;79.20;;;;;;5044188;28;20049;-79
2023/03/29 10:46:11;;;;;;;14.85;6.88;;;9.70;79.10;;;;;;5049897;28;20294;-79
2023/03/29 10:48:45;;;;;;;15.45;8.00;;;9.80;79.10;;;;;;5049949;28;20041;-80
2023/03/29 10:51:14;;;;;;;13.45;7.75;;;9.80;79.30;;;;;;5045122;28;20056;-79
2023/03/29 10:53:41;;;;;;;13.25;8.00;;;9.90;79.20;;;;;;5046403;28;20053;-78
2023/03/29 10:56:24;;;;;;;13.70;7.97;;;10.00;79.10;;;;;;5052697;28;20052;-78
2023/03/29 10:59:09;;;;;;;15.27;6.85;;;10.00;79.10;;;;;;5049663;28;20856;-78
2023/03/29 11:01:44;;;;;;;12.60;7.20;;;10.10;78.90;;;;;;5036290;28;20128;-78
2023/03/29 11:04:27;;;;;;;13.20;7.05;;;10.10;78.90;;;;;;5051769;28;20181;-78
2023/03/29 11:07:09;;;;;;;12.18;7.00;;;10.10;78.70;;;;;;5042229;28;20042;-81
2023/03/29 11:09:48;;;;;;;13.80;6.90;;;10.20;78.70;;;;;;5038759;28;20092;-80
2023/03/29 11:12:25;;;;;;;12.35;6.57;;;10.20;78.60;;;;;;5042964;28;20311;-80
2023/03/29 11:15:03;;;;;;;12.73;6.97;;;10.30;78.40;;;;;;5039130;28;20507;-80
2023/03/29 11:17:49;;;;;;;11.73;6.57;;;10.40;78.60;;;;;;5027348;28;20420;-80
2023/03/29 11:20:33;;;;;;;11.68;6.07;;;10.40;78.30;;;;;;5041191;28;20057;-79
2023/03/29 11:23:22;;;;;;;12.13;6.50;;;10.50;78.20;;;;;;5043785;28;20073;-79
2023/03/29 11:26:03;;;;;;;12.57;7.10;;;10.60;78.30;;;;;;5025557;28;20318;-79
2023/03/29 11:28:36;;;;;;;12.05;6.10;;;10.60;77.70;;;;;;5019818;28;20123;-80
2023/03/29 11:31:12;;;;;;;11.88;6.57;;;10.70;77.60;;;;;;5043590;28;20137;-79
2023/03/29 11:33:55;;;;;;;10.73;5.63;;;10.70;77.90;;;;;;5027206;28;20100;-80
2023/03/29 11:36:31;;;;;;;11.83;6.13;;;10.80;77.90;;;;;;5045107;28;20760;-80
2023/03/29 11:39:10;;;;;;;10.48;5.93;;;10.90;77.70;;;;;;5041750;28;20344;-78
2023/03/29 11:41:39;;;;;;;10.82;4.97;;;11.00;77.50;;;;;;5046601;28;20812;-78
2023/03/29 11:44:13;;;;;;;10.93;6.07;;;11.00;77.40;;;;;;5030371;28;20212;-78
2023/03/29 11:46:47;;;;;;;12.52;6.10;;;11.10;77.20;;;;;;5047855;28;20107;-77
2023/03/29 11:49:20;;;;;;;13.70;6.30;;;11.10;76.80;;;;;;5047961;28;21646;-78
2023/03/29 11:51:54;;;;;;;10.23;5.35;;;11.30;76.50;;;;;;5048763;28;20355;-78
2023/03/29 11:54:28;;;;;;;13.73;5.60;;;11.40;76.60;;;;;;5048093;28;20049;-78
2023/03/29 11:57:00;;;;;;;12.40;6.20;;;11.40;76.40;;;;;;5043715;28;20112;-79
2023/03/29 11:59:32;;;;;;;10.88;5.10;;;11.50;76.40;;;;;;5046971;28;20137;-77
2023/03/29 12:02:08;;;;;;;11.67;5.73;;;11.50;76.50;;;;;;5042089;28;20112;-78
2023/03/29 12:04:41;;;;;;;10.27;5.18;;;11.50;76.30;;;;;;5040019;28;20289;-78
2023/03/29 12:07:14;;;;;;;10.60;5.93;;;11.60;76.40;;;;;;5045217;28;20137;-78
2023/03/29 12:09:45;;;;;;;9.43;5.30;;;11.70;75.90;;;;;;5047170;28;20136;-78
2023/03/29 12:12:18;;;;;;;11.05;6.30;;;11.70;75.80;;;;;;5029595;28;20044;-78
2023/03/29 12:14:55;;;;;;;9.67;5.60;;;11.70;75.60;;;;;;5023995;28;20061;-78
2023/03/29 12:17:28;;;;;;;10.68;5.65;;;11.80;75.50;;;;;;5040904;28;20281;-78
2023/03/29 12:20:04;;;;;;;9.70;6.20;;;11.90;75.50;;;;;;5011964;28;20087;-78
2023/03/29 12:22:34;;;;;;;11.43;5.70;;;11.90;75.00;;;;;;5027486;28;20045;-78
2023/03/29 12:25:04;;;;;;;12.27;6.20;;;11.90;75.00;;;;;;5063045;28;20872;-78
2023/03/29 12:27:37;;;;;;;9.50;5.93;;;11.90;75.00;;;;;;5028721;28;20042;-78
2023/03/29 12:30:35;;;;;;;11.75;6.22;;;12.00;75.10;;;;;;5046765;28;20699;-78
2023/03/29 12:33:29;;;;;;;11.15;6.30;;;12.00;75.10;;;;;;5046668;28;20057;-78
2023/03/29 12:36:30;;;;;;;11.48;5.32;;;12.00;74.60;;;;;;5044855;28;20119;-78
2023/03/29 12:39:19;;;;;;;10.98;5.38;;;12.00;74.50;;;;;;5041257;28;20053;-79
2023/03/29 12:42:14;;;;;;;11.93;6.17;;;12.10;74.30;;;;;;5039413;28;20090;-79
2023/03/29 12:45:01;;;;;;;10.25;5.88;;;12.10;74.10;;;;;;5046773;28;20303;-80
2023/03/29 12:47:37;;;;;;;9.48;5.63;;;12.10;74.30;;;;;;5016928;28;20053;-79
2023/03/29 12:50:05;;;;;;;9.85;5.88;;;12.10;74.40;;;;;;5041787;28;20058;-80
2023/03/29 12:52:34;;;;;;;11.98;6.20;;;12.10;74.50;;;;;;5048232;28;20121;-79
2023/03/29 12:55:17;;;;;;;9.87;5.77;;;12.10;74.60;;;;;;5031939;28;20502;-78
2023/03/29 12:57:56;;;;;;;10.82;5.80;;;12.20;74.80;;;;;;5012637;28;20288;-78
2023/03/29 13:00:31;;;;;;;10.90;5.95;;;12.20;74.60;;;;;;5037168;28;20042;-78
2023/03/29 13:03:01;;;;;;;12.70;6.60;;;12.20;74.70;;;;;;5021508;28;20056;-78
2023/03/29 13:05:31;;;;;;;11.55;5.95;;;12.30;74.60;;;;;;5045571;28;20049;-78
2023/03/29 13:07:59;;;;;;;9.77;6.10;;;12.40;74.20;;;;;;5040161;28;20041;-78
2023/03/29 13:10:37;;;;;;;11.57;6.10;;;12.40;74.40;;;;;;5042677;28;20273;-79
2023/03/29 13:13:18;;;;;;;12.70;6.50;;;12.50;73.40;;;;;;5034047;28;20866;-79
2023/03/29 13:15:46;;;;;;;11.45;6.35;;;12.50;73.20;;;;;;5035662;28;20610;-78
2023/03/29 13:18:32;;;;;;;11.52;6.47;;;12.50;73.50;;;;;;5038850;28;20077;-78
2023/03/29 13:21:10;;;;;;;11.23;5.67;;;12.50;73.40;;;;;;5020687;28;20050;-81
2023/03/29 13:23:45;;;;;;;12.68;5.97;;;12.50;73.30;;;;;;5030036;28;20271;-79
2023/03/29 13:26:45;;;;;;;12.27;6.68;;;12.50;73.50;;;;;;5046494;28;20065;-81
2023/03/29 13:29:42;;;;;;;12.15;7.63;;;12.60;73.00;;;;;;5049495;28;20570;-81
2023/03/29 13:32:36;;;;;;;11.80;6.90;;;12.70;72.60;;;;;;5006750;28;20116;-80